createdAt,value
2023-05-16T00:00:40.416Z,3.47
2023-05-16T00:03:07.836Z,3.67
2023-05-16T00:05:34.569Z,3.97
2023-05-16T00:08:01.960Z,4.38
2023-05-16T00:10:28.713Z,4.25
2023-05-16T00:12:56.543Z,3.85
2023-05-16T00:15:24.800Z,3.88
2023-05-16T00:17:52.365Z,4.65
2023-05-16T00:20:23.028Z,4.22
2023-05-16T00:22:50.160Z,5.53
2023-05-16T00:25:16.768Z,4.35
2023-05-16T00:27:44.025Z,4.88
2023-05-16T00:30:11.385Z,4.15
2023-05-16T00:32:38.719Z,4.63
2023-05-16T00:35:07.755Z,4.32
2023-05-16T00:37:35.543Z,4.88
2023-05-16T00:40:02.172Z,5.40
2023-05-16T00:42:29.411Z,5.68
2023-05-16T00:44:57.760Z,4.93
2023-05-16T00:47:25.276Z,5.57
2023-05-16T00:49:52.220Z,4.68
2023-05-16T00:52:19.615Z,5.22
2023-05-16T00:54:47.078Z,5.25
2023-05-16T00:57:15.472Z,4.78
2023-05-16T00:59:46.193Z,5.32
2023-05-16T01:02:14.359Z,4.97
2023-05-16T01:04:42.423Z,6.43
2023-05-16T01:07:09.743Z,5.20
2023-05-16T01:09:37.163Z,5.07
2023-05-16T01:12:46.871Z,5.78
2023-05-16T01:15:17.412Z,5.40
2023-05-16T01:18:03.270Z,5.28
2023-05-16T01:20:56.753Z,5.07
2023-05-16T01:23:46.528Z,5.47
2023-05-16T01:26:23.185Z,4.78
2023-05-16T01:28:51.983Z,6.40
2023-05-16T01:31:19.868Z,6.40
2023-05-16T01:33:47.437Z,6.28
2023-05-16T01:36:41.223Z,5.60
2023-05-16T01:39:46.067Z,6.43
2023-05-16T01:42:17.991Z,6.03
2023-05-16T01:45:05.121Z,6.00
2023-05-16T01:47:33.583Z,6.10
2023-05-16T01:50:17.665Z,5.63
2023-05-16T01:53:00.669Z,5.47
2023-05-16T01:55:47.988Z,6.07
2023-05-16T01:58:17.641Z,5.50
2023-05-16T02:00:44.921Z,5.38
2023-05-16T02:03:12.536Z,5.70
2023-05-16T02:05:39.473Z,6.15
2023-05-16T02:08:09.321Z,5.75
2023-05-16T02:10:36.429Z,5.90
2023-05-16T02:13:03.328Z,6.38
2023-05-16T02:15:30.765Z,6.18
2023-05-16T02:17:58.497Z,5.88
2023-05-16T02:20:25.943Z,4.85
2023-05-16T02:22:52.632Z,5.47
2023-05-16T02:25:19.984Z,4.82
2023-05-16T02:27:46.657Z,5.45
2023-05-16T02:30:14.375Z,4.93
2023-05-16T02:32:41.490Z,4.82
2023-05-16T02:35:08.987Z,5.53
2023-05-16T02:37:35.577Z,4.53
2023-05-16T02:40:05.993Z,5.28
2023-05-16T02:42:32.890Z,4.25
2023-05-16T02:45:00.488Z,4.82
2023-05-16T02:47:27.278Z,5.32
2023-05-16T02:49:54.621Z,5.28
2023-05-16T02:52:21.411Z,5.15
2023-05-16T02:54:56.140Z,4.35
2023-05-16T02:57:35.534Z,4.03
2023-05-16T03:00:02.811Z,5.13
2023-05-16T03:02:29.438Z,4.72
2023-05-16T03:04:56.765Z,4.65
2023-05-16T03:07:23.506Z,4.00
2023-05-16T03:09:50.729Z,4.95
2023-05-16T03:12:18.351Z,5.22
2023-05-16T03:14:45.700Z,5.15
2023-05-16T03:17:12.341Z,4.45
2023-05-16T03:19:39.722Z,4.40
2023-05-16T03:22:06.424Z,4.75
2023-05-16T03:24:33.731Z,4.70
2023-05-16T03:27:00.529Z,4.93
2023-05-16T03:29:27.450Z,4.63
2023-05-16T03:31:55.061Z,4.35
2023-05-16T03:34:22.404Z,4.65
2023-05-16T03:36:50.121Z,4.28
2023-05-16T03:39:17.446Z,4.28
2023-05-16T03:41:45.047Z,4.35
2023-05-16T03:44:12.105Z,4.38
2023-05-16T03:46:38.772Z,5.18
2023-05-16T03:49:06.222Z,4.57
2023-05-16T03:51:33.611Z,4.13
2023-05-16T03:54:00.519Z,4.85
2023-05-16T03:56:27.756Z,4.28
2023-05-16T03:58:54.676Z,4.32
2023-05-16T04:01:21.273Z,4.50
2023-05-16T04:03:48.210Z,4.03
2023-05-16T04:06:15.566Z,3.95
2023-05-16T04:08:44.798Z,4.75
2023-05-16T04:11:12.400Z,3.85
2023-05-16T04:13:39.112Z,3.67
2023-05-16T04:16:07.421Z,4.10
2023-05-16T04:18:34.741Z,4.97
2023-05-16T04:21:01.778Z,4.88
2023-05-16T04:23:28.675Z,4.65
2023-05-16T04:25:57.162Z,5.20
2023-05-16T04:28:23.762Z,4.25
2023-05-16T04:30:51.537Z,4.68
2023-05-16T04:33:18.626Z,4.45
2023-05-16T04:35:46.084Z,3.53
2023-05-16T04:38:12.712Z,4.50
2023-05-16T04:40:41.913Z,3.97
2023-05-16T04:43:08.948Z,4.15
2023-05-16T04:45:37.617Z,4.38
2023-05-16T04:48:04.883Z,4.32
2023-05-16T04:50:32.288Z,4.07
2023-05-16T04:52:58.994Z,4.28
2023-05-16T04:55:26.546Z,4.47
2023-05-16T04:57:53.627Z,3.85
2023-05-16T05:00:21.133Z,4.60
2023-05-16T05:02:47.817Z,3.72
2023-05-16T05:05:15.198Z,3.83
2023-05-16T05:07:42.721Z,4.72
2023-05-16T05:10:11.849Z,4.38
2023-05-16T05:12:38.560Z,4.82
2023-05-16T05:15:06.741Z,3.70
2023-05-16T05:17:33.607Z,4.70
2023-05-16T05:20:02.945Z,3.53
2023-05-16T05:22:30.205Z,3.58
2023-05-16T05:24:57.131Z,2.78
2023-05-16T05:27:25.596Z,3.75
2023-05-16T05:29:52.246Z,4.05
2023-05-16T05:32:19.555Z,4.05
2023-05-16T05:34:46.206Z,6.18
2023-05-16T05:37:14.064Z,6.40
2023-05-16T05:39:40.845Z,3.03
2023-05-16T05:42:08.300Z,2.97
2023-05-16T05:44:35.002Z,3.20
2023-05-16T05:47:02.355Z,3.60
2023-05-16T05:49:29.232Z,3.25
2023-05-16T05:51:56.528Z,3.30
2023-05-16T05:54:23.748Z,3.05
2023-05-16T05:56:51.124Z,3.85
2023-05-16T05:59:17.807Z,3.97
2023-05-16T06:01:45.421Z,2.83
2023-05-16T06:04:12.200Z,3.42
2023-05-16T06:06:40.360Z,3.55
2023-05-16T06:09:07.148Z,3.75
2023-05-16T06:11:34.399Z,3.17
2023-05-16T06:14:01.043Z,2.97
2023-05-16T06:16:28.555Z,3.33
2023-05-16T06:18:55.327Z,3.33
2023-05-16T06:21:22.819Z,3.50
2023-05-16T06:23:49.511Z,3.28
2023-05-16T06:26:16.806Z,3.35
2023-05-16T06:28:43.500Z,3.53
2023-05-16T06:31:10.993Z,3.40
2023-05-16T06:33:37.843Z,3.35
2023-05-16T06:36:05.551Z,3.35
2023-05-16T06:38:32.186Z,3.05
2023-05-16T06:40:59.574Z,3.00
2023-05-16T06:43:26.231Z,3.80
2023-05-16T06:45:53.662Z,2.72
2023-05-16T06:48:21.212Z,3.33
2023-05-16T06:50:50.193Z,3.13
2023-05-16T06:53:16.854Z,3.38
2023-05-16T06:55:45.008Z,2.85
2023-05-16T06:58:12.146Z,3.85
2023-05-16T07:00:39.506Z,3.33
2023-05-16T07:03:06.730Z,3.30
2023-05-16T07:05:34.085Z,4.05
2023-05-16T07:08:01.104Z,3.58
2023-05-16T07:10:28.382Z,3.08
2023-05-16T07:12:55.582Z,4.13
2023-05-16T07:15:22.914Z,3.85
2023-05-16T07:17:50.959Z,3.13
2023-05-16T07:20:18.367Z,3.33
2023-05-16T07:22:45.028Z,3.08
2023-05-16T07:25:14.659Z,3.83
2023-05-16T07:27:44.517Z,3.42
2023-05-16T07:30:13.363Z,3.63
2023-05-16T07:32:40.707Z,2.90
2023-05-16T07:35:08.441Z,3.30
2023-05-16T07:37:37.871Z,3.08
2023-05-16T07:40:05.845Z,3.03
2023-05-16T07:42:32.635Z,3.33
2023-05-16T07:44:59.929Z,3.22
2023-05-16T07:47:26.946Z,3.00
2023-05-16T07:49:54.394Z,2.58
2023-05-16T07:52:21.117Z,3.40
2023-05-16T07:54:48.399Z,3.28
2023-05-16T07:57:15.822Z,3.17
2023-05-16T07:59:45.112Z,2.75
2023-05-16T08:02:12.236Z,2.85
2023-05-16T08:04:39.806Z,3.05
2023-05-16T08:07:06.481Z,2.72
2023-05-16T08:09:35.345Z,3.08
2023-05-16T08:12:03.583Z,2.95
2023-05-16T08:14:34.409Z,2.83
2023-05-16T08:17:01.307Z,3.25
2023-05-16T08:19:29.695Z,2.75
2023-05-16T08:21:56.534Z,2.95
2023-05-16T08:24:23.875Z,2.67
2023-05-16T08:26:50.764Z,2.67
2023-05-16T08:29:18.204Z,2.85
2023-05-16T08:31:44.940Z,2.92
2023-05-16T08:34:12.282Z,2.63
2023-05-16T08:36:39.020Z,2.85
2023-05-16T08:39:06.307Z,2.72
2023-05-16T08:41:33.376Z,2.60
2023-05-16T08:44:00.632Z,2.58
2023-05-16T08:46:29.162Z,2.88
2023-05-16T08:49:01.070Z,3.28
2023-05-16T08:51:32.311Z,2.92
2023-05-16T08:54:11.957Z,2.50
2023-05-16T08:56:39.274Z,2.28
2023-05-16T08:59:07.030Z,2.28
2023-05-16T09:01:33.971Z,2.45
2023-05-16T09:04:02.165Z,2.28
2023-05-16T09:06:28.991Z,2.10
2023-05-16T09:08:56.385Z,2.55
2023-05-16T09:11:24.004Z,2.50
2023-05-16T09:13:51.014Z,2.22
2023-05-16T09:16:20.261Z,2.03
2023-05-16T09:18:55.701Z,1.90
2023-05-16T09:21:30.144Z,2.15
2023-05-16T09:23:59.681Z,2.38
2023-05-16T09:26:26.726Z,1.90
2023-05-16T09:28:55.902Z,2.83
2023-05-16T09:31:27.053Z,2.60
2023-05-16T09:33:56.368Z,2.38
2023-05-16T09:36:23.830Z,2.17
2023-05-16T09:38:52.274Z,2.08
2023-05-16T09:41:21.770Z,2.13
2023-05-16T09:43:48.473Z,2.30
2023-05-16T09:46:16.620Z,2.70
2023-05-16T09:48:51.982Z,1.50
2023-05-16T09:51:22.524Z,2.10
2023-05-16T09:53:49.837Z,1.70
2023-05-16T09:56:16.876Z,2.28
2023-05-16T09:58:46.228Z,1.83
2023-05-16T10:01:13.004Z,1.88
2023-05-16T10:03:41.949Z,2.30
2023-05-16T10:06:10.822Z,2.22
2023-05-16T10:08:38.342Z,1.80
2023-05-16T10:11:06.958Z,2.33
2023-05-16T10:13:35.772Z,2.30
2023-05-16T10:16:08.652Z,1.95
2023-05-16T10:18:37.907Z,2.03
2023-05-16T10:21:10.430Z,2.42
2023-05-16T10:23:43.676Z,2.03
2023-05-16T10:26:13.855Z,2.42
2023-05-16T10:28:42.605Z,1.95
2023-05-16T10:31:12.967Z,2.10
2023-05-16T10:33:39.815Z,2.40
2023-05-16T10:36:11.199Z,2.00
2023-05-16T10:38:39.582Z,1.98
2023-05-16T10:41:07.261Z,2.00
2023-05-16T10:43:34.262Z,2.03
2023-05-16T10:46:07.893Z,1.70
2023-05-16T10:48:37.209Z,2.35
2023-05-16T10:51:24.253Z,1.98
2023-05-16T10:53:55.325Z,1.90
2023-05-16T10:56:28.569Z,1.90
2023-05-16T10:58:58.521Z,2.30
2023-05-16T11:01:27.455Z,1.70
2023-05-16T11:04:01.319Z,2.70
2023-05-16T11:06:28.118Z,2.20
2023-05-16T11:09:10.435Z,2.55
2023-05-16T11:11:52.637Z,2.97
2023-05-16T11:14:35.187Z,2.17
2023-05-16T11:17:01.929Z,2.17
2023-05-16T11:19:50.876Z,2.10
2023-05-16T11:22:23.423Z,2.58
2023-05-16T11:24:59.949Z,2.20
2023-05-16T11:27:29.301Z,1.70
2023-05-16T11:30:05.464Z,2.28
2023-05-16T11:32:35.437Z,2.78
2023-05-16T11:35:04.065Z,2.58
2023-05-16T11:37:31.258Z,1.75
2023-05-16T11:40:07.294Z,2.15
2023-05-16T11:42:52.499Z,1.48
2023-05-16T11:45:30.675Z,1.75
2023-05-16T11:48:02.955Z,1.40
2023-05-16T11:50:34.337Z,1.45
2023-05-16T11:53:01.535Z,1.50
2023-05-16T11:55:41.301Z,1.60
2023-05-16T11:58:09.886Z,1.17
2023-05-16T12:00:37.278Z,1.30
2023-05-16T12:03:05.544Z,1.10
2023-05-16T12:05:35.057Z,1.20
2023-05-16T12:08:04.967Z,1.13
2023-05-16T12:10:34.949Z,1.60
2023-05-16T12:13:03.389Z,1.52
2023-05-16T12:15:31.225Z,1.30
2023-05-16T12:17:58.606Z,1.10
2023-05-16T12:20:26.370Z,1.42
2023-05-16T12:22:53.297Z,1.30
2023-05-16T12:25:30.117Z,1.02
2023-05-16T12:28:02.918Z,1.27
2023-05-16T12:33:08.362Z,1.40
2023-05-16T12:35:38.835Z,0.95
2023-05-16T12:38:10.025Z,1.70
2023-05-16T12:40:38.171Z,1.52
2023-05-16T12:43:05.388Z,1.30
2023-05-16T12:45:35.332Z,1.15
2023-05-16T12:48:08.523Z,1.15
2023-05-16T12:53:02.279Z,1.40
2023-05-16T12:55:29.594Z,1.20
2023-05-16T12:57:57.604Z,1.10
2023-05-16T13:00:24.892Z,1.35
2023-05-16T13:02:52.224Z,1.40
2023-05-16T13:05:20.773Z,1.33
2023-05-16T13:07:47.601Z,1.27
2023-05-16T13:10:14.999Z,1.50
2023-05-16T13:12:41.974Z,1.55
2023-05-16T13:15:12.086Z,1.38
2023-05-16T13:17:39.942Z,2.00
2023-05-16T13:20:13.704Z,1.70
2023-05-16T13:22:44.920Z,1.30
2023-05-16T13:25:12.642Z,1.80
2023-05-16T13:27:39.460Z,1.23
2023-05-16T13:30:07.597Z,1.70
2023-05-16T13:32:34.417Z,2.08
2023-05-16T13:35:01.769Z,1.38
2023-05-16T13:37:28.479Z,2.40
2023-05-16T13:39:56.312Z,1.35
2023-05-16T13:42:23.005Z,1.80
2023-05-16T13:44:50.532Z,1.58
2023-05-16T13:47:17.172Z,1.50
2023-05-16T13:49:44.660Z,1.75
2023-05-16T13:52:11.530Z,1.70
2023-05-16T13:54:40.632Z,1.73
2023-05-16T13:57:07.942Z,5.55
2023-05-16T14:00:03.407Z,3.45
2023-05-16T14:02:22.706Z,19.38
2023-05-16T14:04:50.247Z,9.85
2023-05-16T14:07:17.004Z,5.20
2023-05-16T14:09:45.559Z,4.43
2023-05-16T14:12:12.244Z,6.97
2023-05-16T14:14:40.235Z,5.72
2023-05-16T14:17:07.428Z,4.20
2023-05-16T14:19:34.835Z,4.38
2023-05-16T14:22:01.610Z,9.38
2023-05-16T14:24:29.036Z,6.13
2023-05-16T14:26:55.740Z,8.70
2023-05-16T14:29:23.369Z,13.50
2023-05-16T14:31:50.132Z,4.38
2023-05-16T14:34:17.498Z,5.40
2023-05-16T14:36:44.218Z,5.28
2023-05-16T14:39:13.449Z,6.05
2023-05-16T14:41:40.133Z,4.38
2023-05-16T14:44:07.438Z,7.13
2023-05-16T14:46:34.178Z,7.20
2023-05-16T14:49:01.771Z,9.30
2023-05-16T14:51:28.523Z,5.15
2023-05-16T14:53:56.204Z,5.28
2023-05-16T14:56:22.939Z,3.95
2023-05-16T14:58:49.902Z,7.72
2023-05-16T15:01:17.497Z,15.85
2023-05-16T15:03:54.619Z,11.15
2023-05-16T15:06:22.938Z,6.60
2023-05-16T15:08:50.275Z,6.90
2023-05-16T15:11:16.977Z,16.30
2023-05-16T15:13:44.278Z,6.15
2023-05-16T15:16:11.144Z,11.85
2023-05-16T15:18:38.643Z,11.48
2023-05-16T15:21:05.660Z,5.88
2023-05-16T15:23:32.924Z,6.32
2023-05-16T15:26:00.337Z,3.20
2023-05-16T15:28:26.976Z,7.55
2023-05-16T15:30:54.258Z,7.32
2023-05-16T15:33:20.915Z,7.25
2023-05-16T15:35:48.706Z,10.43
2023-05-16T15:38:15.458Z,6.97
2023-05-16T15:40:42.836Z,4.35
2023-05-16T15:43:09.480Z,12.15
2023-05-16T15:45:39.939Z,3.05
2023-05-16T15:48:07.098Z,5.00
2023-05-16T15:50:34.507Z,4.53
2023-05-16T15:53:01.283Z,4.57
2023-05-16T15:55:28.910Z,3.38
2023-05-16T15:57:58.327Z,5.78
2023-05-16T16:00:26.291Z,4.38
2023-05-16T16:02:53.272Z,6.05
2023-05-16T16:05:20.627Z,4.45
2023-05-16T16:07:47.338Z,4.22
2023-05-16T16:10:14.693Z,4.63
2023-05-16T16:12:41.597Z,4.70
2023-05-16T16:15:10.943Z,5.13
2023-05-16T16:17:37.828Z,6.72
2023-05-16T16:20:05.952Z,6.82
2023-05-16T16:22:32.659Z,3.67
2023-05-16T16:25:00.786Z,5.80
2023-05-16T16:27:27.596Z,10.80
2023-05-16T16:29:54.559Z,9.38
2023-05-16T16:32:21.218Z,10.68
2023-05-16T16:34:48.616Z,6.30
2023-05-16T16:37:15.529Z,6.28
2023-05-16T16:39:42.911Z,6.15
2023-05-16T16:42:09.701Z,4.45
2023-05-16T16:44:37.040Z,4.95
2023-05-16T16:47:04.036Z,8.25
2023-05-16T16:49:31.656Z,8.68
2023-05-16T16:51:58.406Z,7.97
2023-05-16T16:54:25.514Z,2.63
2023-05-16T16:56:52.502Z,3.17
2023-05-16T16:59:20.137Z,4.97
2023-05-16T17:01:46.914Z,3.28
2023-05-16T17:04:14.236Z,2.95
2023-05-16T17:06:41.020Z,2.60
2023-05-16T17:09:13.846Z,3.53
2023-05-16T17:11:42.131Z,3.03
2023-05-16T17:14:10.936Z,3.10
2023-05-16T17:16:38.489Z,2.70
2023-05-16T17:19:06.045Z,2.42
2023-05-16T17:21:34.824Z,2.83
2023-05-16T17:24:02.682Z,3.75
2023-05-16T17:26:30.040Z,16.02
2023-05-16T17:28:58.925Z,7.28
2023-05-16T17:31:26.069Z,6.03
2023-05-16T17:33:53.519Z,9.10
2023-05-16T17:36:20.930Z,10.60
2023-05-16T17:38:48.968Z,7.47
2023-05-16T17:41:16.225Z,9.07
2023-05-16T17:43:45.355Z,7.35
2023-05-16T17:46:12.599Z,6.32
2023-05-16T17:48:39.913Z,8.85
2023-05-16T17:51:06.703Z,7.63
2023-05-16T17:53:34.084Z,5.95
2023-05-16T17:56:00.773Z,6.93
2023-05-16T17:58:28.445Z,2.60
2023-05-16T18:00:55.412Z,15.90
2023-05-16T18:03:22.946Z,6.53
2023-05-16T18:05:50.393Z,4.57
2023-05-16T18:08:17.797Z,3.33
2023-05-16T18:13:17.856Z,4.43
2023-05-16T18:15:44.546Z,3.85
2023-05-16T18:18:11.983Z,3.03
2023-05-16T18:20:38.747Z,3.97
2023-05-16T18:23:06.055Z,7.95
2023-05-16T18:25:33.203Z,4.70
2023-05-16T18:28:00.606Z,3.22
2023-05-16T18:30:27.315Z,2.55
2023-05-16T18:32:54.590Z,3.20
2023-05-16T18:35:21.400Z,4.72
2023-05-16T18:37:48.689Z,4.20
2023-05-16T18:40:15.477Z,2.83
2023-05-16T18:42:42.770Z,3.33
2023-05-16T18:45:09.791Z,2.97
2023-05-16T18:47:37.019Z,4.32
2023-05-16T18:50:04.521Z,5.13
2023-05-16T18:52:31.865Z,9.52
2023-05-16T18:54:58.656Z,7.55
2023-05-16T18:57:26.228Z,10.65
2023-05-16T18:59:53.725Z,10.00
2023-05-16T19:02:30.330Z,13.80
2023-05-16T19:05:08.846Z,8.63
2023-05-16T19:07:36.013Z,6.63
2023-05-16T19:10:03.790Z,6.00
2023-05-16T19:12:31.483Z,8.52
2023-05-16T19:14:58.257Z,6.57
2023-05-16T19:17:25.911Z,3.70
2023-05-16T19:19:52.837Z,3.40
2023-05-16T19:22:19.629Z,5.20
2023-05-16T19:24:46.591Z,4.43
2023-05-16T19:27:13.734Z,9.38
2023-05-16T19:29:40.409Z,6.82
2023-05-16T19:32:07.816Z,5.43
2023-05-16T19:34:34.509Z,5.30
2023-05-16T19:37:03.285Z,4.40
2023-05-16T19:39:31.899Z,4.47
2023-05-16T19:42:06.659Z,4.63
2023-05-16T19:44:35.003Z,2.80
2023-05-16T19:47:02.383Z,2.50
2023-05-16T19:49:34.493Z,3.10
2023-05-16T19:52:03.065Z,2.57
2023-05-16T19:54:30.656Z,3.40
2023-05-16T19:56:57.443Z,4.72
2023-05-16T19:59:24.158Z,8.27
2023-05-16T20:01:51.574Z,5.07
2023-05-16T20:04:18.430Z,8.73
2023-05-16T20:06:46.171Z,10.48
2023-05-16T20:09:12.945Z,13.23
2023-05-16T20:11:39.630Z,10.93
2023-05-16T20:14:09.276Z,7.75
2023-05-16T20:16:35.996Z,5.00
2023-05-16T20:19:03.099Z,4.95
2023-05-16T20:21:29.885Z,6.80
2023-05-16T20:23:56.953Z,6.82
2023-05-16T20:26:23.676Z,7.13
2023-05-16T20:28:51.290Z,8.55
2023-05-16T20:31:18.144Z,8.93
2023-05-16T20:33:47.085Z,4.90
2023-05-16T20:36:13.816Z,5.93
2023-05-16T20:38:40.865Z,5.85
2023-05-16T20:41:07.546Z,5.78
2023-05-16T20:43:34.878Z,5.53
2023-05-16T20:46:01.511Z,4.35
2023-05-16T20:48:28.862Z,5.10
2023-05-16T20:50:56.473Z,4.68
2023-05-16T20:53:23.526Z,6.65
2023-05-16T20:55:50.310Z,7.85
2023-05-16T20:58:17.616Z,21.35
2023-05-16T21:00:44.287Z,18.42
2023-05-16T21:03:12.775Z,20.75
2023-05-16T21:05:39.980Z,18.67
2023-05-16T21:08:07.569Z,5.75
2023-05-16T21:10:34.317Z,4.60
2023-05-16T21:13:01.646Z,4.78
2023-05-16T21:15:28.635Z,4.55
2023-05-16T21:17:55.974Z,2.83
2023-05-16T21:20:22.866Z,3.28
2023-05-16T21:22:49.909Z,3.10
2023-05-16T21:25:16.727Z,4.10
2023-05-16T21:27:44.069Z,3.42
2023-05-16T21:30:11.325Z,2.63
2023-05-16T21:32:38.659Z,3.72
2023-05-16T21:35:06.782Z,2.88
2023-05-16T21:37:34.343Z,2.67
2023-05-16T21:40:00.995Z,3.22
2023-05-16T21:42:28.433Z,3.00
2023-05-16T21:44:55.175Z,2.30
2023-05-16T21:47:22.445Z,2.80
2023-05-16T21:49:49.718Z,2.63
2023-05-16T21:52:17.040Z,2.40
2023-05-16T21:54:43.699Z,2.67
2023-05-16T21:57:11.131Z,3.15
2023-05-16T21:59:37.801Z,2.20
2023-05-16T22:02:05.418Z,2.40
2023-05-16T22:04:32.356Z,3.10
2023-05-16T22:06:59.702Z,2.58
2023-05-16T22:09:26.334Z,2.92
2023-05-16T22:11:53.590Z,2.22
2023-05-16T22:14:20.465Z,3.03
2023-05-16T22:16:47.462Z,2.70
2023-05-16T22:19:14.129Z,2.03
2023-05-16T22:21:41.404Z,2.50
2023-05-16T22:24:08.171Z,2.38
2023-05-16T22:26:35.421Z,2.55
2023-05-16T22:29:02.107Z,2.75
2023-05-16T22:31:29.450Z,2.60
2023-05-16T22:33:56.255Z,3.10
2023-05-16T22:36:23.257Z,2.75
2023-05-16T22:38:50.278Z,2.80
2023-05-16T22:41:17.654Z,2.22
2023-05-16T22:43:44.320Z,2.78
2023-05-16T22:46:11.696Z,2.25
2023-05-16T22:48:38.352Z,2.70
2023-05-16T22:51:05.727Z,2.75
2023-05-16T22:53:32.374Z,3.15
2023-05-16T22:55:59.671Z,2.67
2023-05-16T22:58:26.353Z,2.67
2023-05-16T23:00:53.655Z,2.65
2023-05-16T23:03:20.517Z,2.92
2023-05-16T23:05:47.906Z,3.03
2023-05-16T23:08:14.717Z,3.00
2023-05-16T23:10:42.003Z,2.75
2023-05-16T23:13:08.649Z,3.20
2023-05-16T23:15:36.020Z,3.45
2023-05-16T23:18:02.727Z,2.85
2023-05-16T23:20:29.829Z,3.58
2023-05-16T23:22:56.465Z,2.60
2023-05-16T23:25:24.047Z,2.78
2023-05-16T23:27:50.724Z,3.30
2023-05-16T23:30:18.157Z,2.92
2023-05-16T23:32:44.898Z,2.55
2023-05-16T23:35:12.294Z,3.08
2023-05-16T23:37:38.961Z,3.00
2023-05-16T23:40:08.707Z,2.88
2023-05-16T23:42:36.687Z,3.63
2023-05-16T23:45:04.647Z,3.35
2023-05-16T23:47:31.364Z,3.72
2023-05-16T23:49:58.736Z,3.50
2023-05-16T23:52:25.511Z,3.80
2023-05-16T23:54:52.808Z,3.42
2023-05-16T23:57:19.491Z,4.32
2023-05-16T23:59:46.781Z,4.60
